sensor_id;sensor_type;location;lat;lon;timestamp;pressure;altitude;pressure_sealevel;temperature;humidity
70559;BME280;58108;48.094;11.838;2024-01-16T00:01:05;94641.84;;;-4.17;91.37
70559;BME280;58108;48.094;11.838;2024-01-16T00:03:32;94640.53;;;-4.29;91.08
70559;BME280;58108;48.094;11.838;2024-01-16T00:05:57;94650.28;;;-4.15;90.78
70559;BME280;58108;48.094;11.838;2024-01-16T00:08:23;94644.50;;;-4.20;90.29
70559;BME280;58108;48.094;11.838;2024-01-16T00:10:50;94637.56;;;-4.17;91.63
70559;BME280;58108;48.094;11.838;2024-01-16T00:13:15;94641.19;;;-4.24;90.34
70559;BME280;58108;48.094;11.838;2024-01-16T00:15:42;94648.81;;;-4.22;90.57
70559;BME280;58108;48.094;11.838;2024-01-16T00:18:08;94643.66;;;-4.21;91.27
70559;BME280;58108;48.094;11.838;2024-01-16T00:20:34;94653.91;;;-4.21;90.89
70559;BME280;58108;48.094;11.838;2024-01-16T00:23:00;94659.97;;;-4.25;91.34
70559;BME280;58108;48.094;11.838;2024-01-16T00:25:25;94654.81;;;-4.23;91.65
70559;BME280;58108;48.094;11.838;2024-01-16T00:27:51;94654.81;;;-4.23;90.44
70559;BME280;58108;48.094;11.838;2024-01-16T00:30:18;94655.59;;;-4.21;90.33
70559;BME280;58108;48.094;11.838;2024-01-16T00:32:43;94649.84;;;-4.27;91.58
70559;BME280;58108;48.094;11.838;2024-01-16T00:35:09;94652.22;;;-4.22;89.98
70559;BME280;58108;48.094;11.838;2024-01-16T00:37:38;94655.75;;;-4.26;89.80
70559;BME280;58108;48.094;11.838;2024-01-16T00:40:04;94665.88;;;-4.23;89.62
70559;BME280;58108;48.094;11.838;2024-01-16T00:42:31;94666.56;;;-4.18;89.19
70559;BME280;58108;48.094;11.838;2024-01-16T00:44:57;94672.84;;;-4.27;90.04
70559;BME280;58108;48.094;11.838;2024-01-16T00:47:23;94671.94;;;-4.26;89.91
70559;BME280;58108;48.094;11.838;2024-01-16T00:49:49;94674.28;;;-4.19;89.21
70559;BME280;58108;48.094;11.838;2024-01-16T00:52:15;94684.25;;;-4.12;89.82
70559;BME280;58108;48.094;11.838;2024-01-16T00:54:42;94683.53;;;-4.15;89.10
70559;BME280;58108;48.094;11.838;2024-01-16T00:57:07;94678.28;;;-4.12;87.62
70559;BME280;58108;48.094;11.838;2024-01-16T00:59:33;94681.75;;;-4.13;87.76
70559;BME280;58108;48.094;11.838;2024-01-16T01:01:58;94682.59;;;-4.13;87.90
70559;BME280;58108;48.094;11.838;2024-01-16T01:04:24;94686.91;;;-4.15;88.27
70559;BME280;58108;48.094;11.838;2024-01-16T01:06:49;94696.47;;;-4.20;88.20
70559;BME280;58108;48.094;11.838;2024-01-16T01:09:16;94694.63;;;-4.16;88.60
70559;BME280;58108;48.094;11.838;2024-01-16T01:11:41;94698.91;;;-4.17;89.14
70559;BME280;58108;48.094;11.838;2024-01-16T01:14:07;94700.31;;;-4.08;88.74
70559;BME280;58108;48.094;11.838;2024-01-16T01:16:32;94702.16;;;-4.12;89.17
70559;BME280;58108;48.094;11.838;2024-01-16T01:18:58;94705.84;;;-4.20;89.66
70559;BME280;58108;48.094;11.838;2024-01-16T01:21:24;94709.84;;;-4.13;89.16
70559;BME280;58108;48.094;11.838;2024-01-16T01:23:49;94716.75;;;-4.15;89.54
70559;BME280;58108;48.094;11.838;2024-01-16T01:26:15;94716.13;;;-4.22;89.11
70559;BME280;58108;48.094;11.838;2024-01-16T01:28:43;94715.16;;;-4.19;88.79
70559;BME280;58108;48.094;11.838;2024-01-16T01:31:10;94708.63;;;-4.27;89.41
70559;BME280;58108;48.094;11.838;2024-01-16T01:33:36;94725.50;;;-4.22;89.94
70559;BME280;58108;48.094;11.838;2024-01-16T01:36:01;94730.56;;;-4.21;89.85
70559;BME280;58108;48.094;11.838;2024-01-16T01:38:27;94728.22;;;-4.27;89.82
70559;BME280;58108;48.094;11.838;2024-01-16T01:40:52;94734.59;;;-4.14;89.83
70559;BME280;58108;48.094;11.838;2024-01-16T01:43:21;94733.81;;;-4.43;90.32
70559;BME280;58108;48.094;11.838;2024-01-16T01:46:09;94736.78;;;-4.28;90.34
70559;BME280;58108;48.094;11.838;2024-01-16T01:48:40;94747.59;;;-4.20;89.81
70559;BME280;58108;48.094;11.838;2024-01-16T01:51:06;94742.94;;;-4.34;89.07
70559;BME280;58108;48.094;11.838;2024-01-16T01:53:33;94745.25;;;-4.28;90.09
70559;BME280;58108;48.094;11.838;2024-01-16T01:56:00;94747.47;;;-4.17;90.78
70559;BME280;58108;48.094;11.838;2024-01-16T01:58:29;94737.41;;;-4.21;90.00
70559;BME280;58108;48.094;11.838;2024-01-16T02:00:54;94745.81;;;-4.18;90.41
70559;BME280;58108;48.094;11.838;2024-01-16T02:03:21;94750.28;;;-4.24;89.75
70559;BME280;58108;48.094;11.838;2024-01-16T02:05:49;94754.22;;;-4.41;89.87
70559;BME280;58108;48.094;11.838;2024-01-16T02:08:15;94761.47;;;-4.29;89.79
70559;BME280;58108;48.094;11.838;2024-01-16T02:10:43;94762.47;;;-4.33;90.62
70559;BME280;58108;48.094;11.838;2024-01-16T02:13:11;94756.88;;;-4.17;90.83
70559;BME280;58108;48.094;11.838;2024-01-16T02:15:36;94752.72;;;-4.21;91.19
70559;BME280;58108;48.094;11.838;2024-01-16T02:18:04;94749.13;;;-4.41;91.14
70559;BME280;58108;48.094;11.838;2024-01-16T02:20:31;94742.38;;;-4.44;90.62
70559;BME280;58108;48.094;11.838;2024-01-16T02:23:00;94753.16;;;-4.34;91.41
70559;BME280;58108;48.094;11.838;2024-01-16T02:25:28;94745.75;;;-4.43;90.78
70559;BME280;58108;48.094;11.838;2024-01-16T02:27:54;94743.94;;;-4.40;91.22
70559;BME280;58108;48.094;11.838;2024-01-16T02:30:20;94745.25;;;-4.28;90.55
70559;BME280;58108;48.094;11.838;2024-01-16T02:32:45;94757.09;;;-4.25;90.19
70559;BME280;58108;48.094;11.838;2024-01-16T02:35:11;94752.00;;;-4.25;91.33
70559;BME280;58108;48.094;11.838;2024-01-16T02:37:36;94756.38;;;-4.29;91.20
70559;BME280;58108;48.094;11.838;2024-01-16T02:40:03;94741.97;;;-4.31;90.75
70559;BME280;58108;48.094;11.838;2024-01-16T02:42:32;94747.50;;;-4.44;89.79
70559;BME280;58108;48.094;11.838;2024-01-16T02:44:58;94760.56;;;-4.26;90.06
70559;BME280;58108;48.094;11.838;2024-01-16T02:47:23;94751.72;;;-4.43;88.75
70559;BME280;58108;48.094;11.838;2024-01-16T02:49:49;94744.78;;;-4.39;90.89
70559;BME280;58108;48.094;11.838;2024-01-16T02:52:14;94749.72;;;-4.61;90.05
70559;BME280;58108;48.094;11.838;2024-01-16T02:54:40;94754.81;;;-4.61;90.54
70559;BME280;58108;48.094;11.838;2024-01-16T02:57:05;94758.03;;;-4.83;91.10
70559;BME280;58108;48.094;11.838;2024-01-16T02:59:31;94758.44;;;-4.69;91.47
70559;BME280;58108;48.094;11.838;2024-01-16T03:01:57;94754.47;;;-4.77;92.33
70559;BME280;58108;48.094;11.838;2024-01-16T03:04:23;94754.50;;;-5.08;91.49
70559;BME280;58108;48.094;11.838;2024-01-16T03:06:48;94751.78;;;-5.01;92.81
70559;BME280;58108;48.094;11.838;2024-01-16T03:09:14;94760.59;;;-5.13;92.33
70559;BME280;58108;48.094;11.838;2024-01-16T03:11:39;94761.53;;;-5.46;93.42
70559;BME280;58108;48.094;11.838;2024-01-16T03:14:05;94768.38;;;-5.48;94.35
70559;BME280;58108;48.094;11.838;2024-01-16T03:16:31;94772.97;;;-5.61;95.33
70559;BME280;58108;48.094;11.838;2024-01-16T03:18:57;94774.16;;;-5.73;96.00
70559;BME280;58108;48.094;11.838;2024-01-16T03:21:23;94774.50;;;-5.87;97.20
70559;BME280;58108;48.094;11.838;2024-01-16T03:23:49;94762.59;;;-5.86;97.72
70559;BME280;58108;48.094;11.838;2024-01-16T03:26:15;94765.06;;;-5.83;99.53
70559;BME280;58108;48.094;11.838;2024-01-16T03:28:41;94769.69;;;-5.98;97.88
70559;BME280;58108;48.094;11.838;2024-01-16T03:31:07;94766.31;;;-6.33;97.96
70559;BME280;58108;48.094;11.838;2024-01-16T03:33:33;94766.69;;;-6.49;99.19
70559;BME280;58108;48.094;11.838;2024-01-16T03:36:00;94767.91;;;-6.29;98.95
70559;BME280;58108;48.094;11.838;2024-01-16T03:38:26;94774.63;;;-6.63;99.07
70559;BME280;58108;48.094;11.838;2024-01-16T03:40:52;94773.84;;;-6.28;99.91
70559;BME280;58108;48.094;11.838;2024-01-16T03:43:17;94770.28;;;-6.21;99.60
70559;BME280;58108;48.094;11.838;2024-01-16T03:45:44;94765.31;;;-6.26;98.67
70559;BME280;58108;48.094;11.838;2024-01-16T03:48:09;94769.59;;;-6.28;98.58
70559;BME280;58108;48.094;11.838;2024-01-16T03:50:35;94765.31;;;-6.26;97.68
70559;BME280;58108;48.094;11.838;2024-01-16T03:53:02;94767.50;;;-6.12;97.96
70559;BME280;58108;48.094;11.838;2024-01-16T03:55:29;94762.22;;;-6.04;97.49
70559;BME280;58108;48.094;11.838;2024-01-16T03:57:56;94765.03;;;-6.15;96.66
70559;BME280;58108;48.094;11.838;2024-01-16T04:00:24;94758.19;;;-6.13;96.66
70559;BME280;58108;48.094;11.838;2024-01-16T04:02:50;94760.06;;;-6.20;96.50
70559;BME280;58108;48.094;11.838;2024-01-16T04:05:15;94761.53;;;-6.11;98.09
70559;BME280;58108;48.094;11.838;2024-01-16T04:07:41;94763.50;;;-6.22;96.63
70559;BME280;58108;48.094;11.838;2024-01-16T04:10:07;94760.06;;;-6.56;97.10
70559;BME280;58108;48.094;11.838;2024-01-16T04:12:32;94750.13;;;-6.67;98.64
70559;BME280;58108;48.094;11.838;2024-01-16T04:14:58;94756.50;;;-6.49;98.25
70559;BME280;58108;48.094;11.838;2024-01-16T04:17:23;94763.94;;;-6.77;98.31
70559;BME280;58108;48.094;11.838;2024-01-16T04:19:49;94752.59;;;-6.64;99.76
70559;BME280;58108;48.094;11.838;2024-01-16T04:22:14;94758.69;;;-6.71;99.38
70559;BME280;58108;48.094;11.838;2024-01-16T04:24:40;94758.78;;;-6.74;99.54
70559;BME280;58108;48.094;11.838;2024-01-16T04:27:05;94767.69;;;-6.94;99.58
70559;BME280;58108;48.094;11.838;2024-01-16T04:29:31;94762.31;;;-6.80;99.54
70559;BME280;58108;48.094;11.838;2024-01-16T04:31:56;94773.41;;;-7.23;99.44
70559;BME280;58108;48.094;11.838;2024-01-16T04:34:22;94774.06;;;-7.58;99.98
70559;BME280;58108;48.094;11.838;2024-01-16T04:36:48;94765.94;;;-7.77;100.00
70559;BME280;58108;48.094;11.838;2024-01-16T04:39:13;94778.63;;;-7.75;100.00
70559;BME280;58108;48.094;11.838;2024-01-16T04:41:39;94777.44;;;-7.56;100.00
70559;BME280;58108;48.094;11.838;2024-01-16T04:44:04;94771.63;;;-7.62;100.00
70559;BME280;58108;48.094;11.838;2024-01-16T04:46:30;94770.59;;;-7.53;100.00
70559;BME280;58108;48.094;11.838;2024-01-16T04:48:55;94769.13;;;-8.11;100.00
70559;BME280;58108;48.094;11.838;2024-01-16T04:51:21;94764.28;;;-7.79;100.00
70559;BME280;58108;48.094;11.838;2024-01-16T04:53:46;94762.97;;;-7.53;100.00
70559;BME280;58108;48.094;11.838;2024-01-16T04:56:12;94759.19;;;-7.78;100.00
70559;BME280;58108;48.094;11.838;2024-01-16T04:58:38;94764.13;;;-8.17;100.00
70559;BME280;58108;48.094;11.838;2024-01-16T05:01:04;94761.88;;;-8.36;100.00
70559;BME280;58108;48.094;11.838;2024-01-16T05:03:29;94756.63;;;-8.25;100.00
70559;BME280;58108;48.094;11.838;2024-01-16T05:05:55;94757.13;;;-8.03;100.00
70559;BME280;58108;48.094;11.838;2024-01-16T05:08:22;94761.06;;;-8.37;100.00
70559;BME280;58108;48.094;11.838;2024-01-16T05:10:47;94761.69;;;-8.74;100.00
70559;BME280;58108;48.094;11.838;2024-01-16T05:13:13;94763.19;;;-8.60;100.00
70559;BME280;58108;48.094;11.838;2024-01-16T05:15:40;94763.81;;;-8.51;100.00
70559;BME280;58108;48.094;11.838;2024-01-16T05:18:06;94774.59;;;-8.36;100.00
70559;BME280;58108;48.094;11.838;2024-01-16T05:20:31;94783.50;;;-8.12;100.00
70559;BME280;58108;48.094;11.838;2024-01-16T05:22:57;94776.28;;;-7.86;100.00
70559;BME280;58108;48.094;11.838;2024-01-16T05:25:22;94778.25;;;-8.01;100.00
70559;BME280;58108;48.094;11.838;2024-01-16T05:27:48;94772.47;;;-8.61;100.00
70559;BME280;58108;48.094;11.838;2024-01-16T05:30:14;94773.50;;;-8.74;100.00
70559;BME280;58108;48.094;11.838;2024-01-16T05:32:40;94770.97;;;-8.73;100.00
70559;BME280;58108;48.094;11.838;2024-01-16T05:35:07;94776.06;;;-8.76;100.00
70559;BME280;58108;48.094;11.838;2024-01-16T05:37:33;94775.16;;;-8.70;100.00
70559;BME280;58108;48.094;11.838;2024-01-16T05:39:58;94768.22;;;-8.59;100.00
70559;BME280;58108;48.094;11.838;2024-01-16T05:42:24;94765.88;;;-8.71;100.00
70559;BME280;58108;48.094;11.838;2024-01-16T05:44:49;94762.25;;;-8.56;100.00
70559;BME280;58108;48.094;11.838;2024-01-16T05:47:15;94765.91;;;-8.74;100.00
70559;BME280;58108;48.094;11.838;2024-01-16T05:49:41;94761.34;;;-8.52;100.00
70559;BME280;58108;48.094;11.838;2024-01-16T05:52:08;94765.25;;;-8.34;100.00
70559;BME280;58108;48.094;11.838;2024-01-16T05:54:33;94765.34;;;-8.40;100.00
70559;BME280;58108;48.094;11.838;2024-01-16T05:56:59;94757.31;;;-8.64;100.00
70559;BME280;58108;48.094;11.838;2024-01-16T05:59:24;94764.09;;;-8.66;100.00
70559;BME280;58108;48.094;11.838;2024-01-16T06:01:50;94770.53;;;-8.48;100.00
70559;BME280;58108;48.094;11.838;2024-01-16T06:04:16;94769.66;;;-8.45;100.00
70559;BME280;58108;48.094;11.838;2024-01-16T06:06:41;94775.38;;;-8.86;100.00
70559;BME280;58108;48.094;11.838;2024-01-16T06:09:10;94771.78;;;-8.71;100.00
70559;BME280;58108;48.094;11.838;2024-01-16T06:11:39;94778.72;;;-8.84;100.00
70559;BME280;58108;48.094;11.838;2024-01-16T06:14:07;94770.25;;;-8.83;100.00
70559;BME280;58108;48.094;11.838;2024-01-16T06:16:33;94779.91;;;-9.07;100.00
70559;BME280;58108;48.094;11.838;2024-01-16T06:18:58;94785.75;;;-9.03;100.00
70559;BME280;58108;48.094;11.838;2024-01-16T06:21:24;94777.94;;;-8.86;100.00
70559;BME280;58108;48.094;11.838;2024-01-16T06:23:49;94774.59;;;-8.91;100.00
70559;BME280;58108;48.094;11.838;2024-01-16T06:26:15;94773.56;;;-8.77;100.00
70559;BME280;58108;48.094;11.838;2024-01-16T06:28:41;94776.03;;;-8.71;100.00
70559;BME280;58108;48.094;11.838;2024-01-16T06:31:08;94772.13;;;-8.96;100.00
70559;BME280;58108;48.094;11.838;2024-01-16T06:33:34;94772.69;;;-8.75;100.00
70559;BME280;58108;48.094;11.838;2024-01-16T06:36:01;94776.84;;;-8.71;100.00
70559;BME280;58108;48.094;11.838;2024-01-16T06:38:27;94770.25;;;-8.81;100.00
70559;BME280;58108;48.094;11.838;2024-01-16T06:40:53;94773.38;;;-8.65;100.00
70559;BME280;58108;48.094;11.838;2024-01-16T06:43:18;94770.44;;;-8.40;100.00
70559;BME280;58108;48.094;11.838;2024-01-16T06:45:44;94773.34;;;-8.63;100.00
70559;BME280;58108;48.094;11.838;2024-01-16T06:48:10;94764.59;;;-8.47;100.00
70559;BME280;58108;48.094;11.838;2024-01-16T06:50:36;94765.44;;;-8.46;100.00
70559;BME280;58108;48.094;11.838;2024-01-16T06:53:01;94767.66;;;-8.26;100.00
70559;BME280;58108;48.094;11.838;2024-01-16T06:55:27;94761.00;;;-8.33;100.00
70559;BME280;58108;48.094;11.838;2024-01-16T06:57:52;94770.09;;;-8.20;100.00
70559;BME280;58108;48.094;11.838;2024-01-16T07:00:18;94767.75;;;-8.31;100.00
70559;BME280;58108;48.094;11.838;2024-01-16T07:02:43;94766.88;;;-8.30;100.00
70559;BME280;58108;48.094;11.838;2024-01-16T07:05:11;94771.50;;;-8.52;100.00
70559;BME280;58108;48.094;11.838;2024-01-16T07:07:37;94769.28;;;-8.22;100.00
70559;BME280;58108;48.094;11.838;2024-01-16T07:10:03;94767.09;;;-7.92;100.00
70559;BME280;58108;48.094;11.838;2024-01-16T07:12:29;94761.69;;;-7.31;100.00
70559;BME280;58108;48.094;11.838;2024-01-16T07:14:54;94765.75;;;-7.22;100.00
70559;BME280;58108;48.094;11.838;2024-01-16T07:17:20;94756.19;;;-7.12;100.00
70559;BME280;58108;48.094;11.838;2024-01-16T07:19:45;94766.41;;;-7.14;99.58
70559;BME280;58108;48.094;11.838;2024-01-16T07:22:11;94778.91;;;-7.03;99.50
70559;BME280;58108;48.094;11.838;2024-01-16T07:24:36;94777.22;;;-7.04;99.17
70559;BME280;58108;48.094;11.838;2024-01-16T07:27:02;94773.84;;;-7.04;99.12
70559;BME280;58108;48.094;11.838;2024-01-16T07:29:28;94765.03;;;-6.89;98.71
70559;BME280;58108;48.094;11.838;2024-01-16T07:31:53;94771.56;;;-7.17;97.93
70559;BME280;58108;48.094;11.838;2024-01-16T07:34:19;94779.72;;;-7.01;98.67
70559;BME280;58108;48.094;11.838;2024-01-16T07:36:48;94773.53;;;-6.90;98.12
70559;BME280;58108;48.094;11.838;2024-01-16T07:39:13;94787.88;;;-6.86;98.12
70559;BME280;58108;48.094;11.838;2024-01-16T07:41:40;94780.59;;;-7.02;98.80
70559;BME280;58108;48.094;11.838;2024-01-16T07:44:05;94783.22;;;-6.67;98.37
70559;BME280;58108;48.094;11.838;2024-01-16T07:46:31;94784.25;;;-6.38;97.69
70559;BME280;58108;48.094;11.838;2024-01-16T07:48:56;94771.97;;;-6.22;96.65
70559;BME280;58108;48.094;11.838;2024-01-16T07:51:22;94776.00;;;-6.11;95.93
70559;BME280;58108;48.094;11.838;2024-01-16T07:53:47;94774.19;;;-6.06;95.48
70559;BME280;58108;48.094;11.838;2024-01-16T07:56:14;94775.63;;;-5.99;95.37
70559;BME280;58108;48.094;11.838;2024-01-16T07:58:40;94774.81;;;-5.99;94.26
70559;BME280;58108;48.094;11.838;2024-01-16T08:01:05;94775.75;;;-5.69;94.00
70559;BME280;58108;48.094;11.838;2024-01-16T08:03:32;94771.03;;;-5.51;92.67
70559;BME280;58108;48.094;11.838;2024-01-16T08:05:57;94776.75;;;-5.43;92.57
70559;BME280;58108;48.094;11.838;2024-01-16T08:08:24;94773.25;;;-5.39;92.21
70559;BME280;58108;48.094;11.838;2024-01-16T08:10:49;94776.56;;;-5.35;90.37
70559;BME280;58108;48.094;11.838;2024-01-16T08:13:15;94774.97;;;-5.41;90.51
70559;BME280;58108;48.094;11.838;2024-01-16T08:15:40;94779.09;;;-5.35;90.88
70559;BME280;58108;48.094;11.838;2024-01-16T08:18:06;94786.34;;;-5.21;90.23
70559;BME280;58108;48.094;11.838;2024-01-16T08:20:31;94783.84;;;-5.23;90.86
70559;BME280;58108;48.094;11.838;2024-01-16T08:22:57;94771.63;;;-5.11;90.39
70559;BME280;58108;48.094;11.838;2024-01-16T08:25:23;94780.94;;;-5.10;89.60
70559;BME280;58108;48.094;11.838;2024-01-16T08:27:49;94771.00;;;-4.89;89.49
70559;BME280;58108;48.094;11.838;2024-01-16T08:30:14;94768.53;;;-4.92;89.09
70559;BME280;58108;48.094;11.838;2024-01-16T08:32:40;94772.44;;;-4.81;88.63
70559;BME280;58108;48.094;11.838;2024-01-16T08:35:06;94764.09;;;-4.57;86.97
70559;BME280;58108;48.094;11.838;2024-01-16T08:37:33;94765.03;;;-4.33;86.63
70559;BME280;58108;48.094;11.838;2024-01-16T08:39:59;94760.72;;;-4.31;85.20
70559;BME280;58108;48.094;11.838;2024-01-16T08:42:25;94770.31;;;-4.12;84.37
70559;BME280;58108;48.094;11.838;2024-01-16T08:44:50;94773.41;;;-4.02;84.72
70559;BME280;58108;48.094;11.838;2024-01-16T08:47:16;94766.94;;;-4.13;84.69
70559;BME280;58108;48.094;11.838;2024-01-16T08:49:41;94772.44;;;-3.98;83.43
70559;BME280;58108;48.094;11.838;2024-01-16T08:52:07;94772.81;;;-3.83;82.92
70559;BME280;58108;48.094;11.838;2024-01-16T08:54:32;94769.34;;;-3.81;83.36
70559;BME280;58108;48.094;11.838;2024-01-16T08:56:58;94763.94;;;-3.99;83.13
70559;BME280;58108;48.094;11.838;2024-01-16T08:59:24;94763.97;;;-3.75;83.37
70559;BME280;58108;48.094;11.838;2024-01-16T09:01:49;94758.00;;;-3.74;82.85
70559;BME280;58108;48.094;11.838;2024-01-16T09:04:15;94757.16;;;-3.74;83.05
70559;BME280;58108;48.094;11.838;2024-01-16T09:06:40;94754.47;;;-3.71;82.78
70559;BME280;58108;48.094;11.838;2024-01-16T09:09:06;94755.19;;;-3.42;82.63
70559;BME280;58108;48.094;11.838;2024-01-16T09:11:31;94744.00;;;-3.16;80.81
70559;BME280;58108;48.094;11.838;2024-01-16T09:13:57;94748.75;;;-3.05;81.10
70559;BME280;58108;48.094;11.838;2024-01-16T09:16:23;94740.97;;;-3.02;80.36
70559;BME280;58108;48.094;11.838;2024-01-16T09:18:49;94737.41;;;-2.75;80.69
70559;BME280;58108;48.094;11.838;2024-01-16T09:21:14;94733.91;;;-2.72;78.09
70559;BME280;58108;48.094;11.838;2024-01-16T09:23:39;94748.03;;;-2.84;79.60
70559;BME280;58108;48.094;11.838;2024-01-16T09:26:05;94740.63;;;-2.48;79.60
70559;BME280;58108;48.094;11.838;2024-01-16T09:28:30;94741.44;;;-2.25;79.19
70559;BME280;58108;48.094;11.838;2024-01-16T09:30:56;94744.84;;;-2.03;77.83
70559;BME280;58108;48.094;11.838;2024-01-16T09:33:23;94744.75;;;-2.00;75.93
70559;BME280;58108;48.094;11.838;2024-01-16T09:35:48;94745.97;;;-1.88;76.24
70559;BME280;58108;48.094;11.838;2024-01-16T09:38:14;94746.28;;;-2.39;75.19
70559;BME280;58108;48.094;11.838;2024-01-16T09:40:40;94737.69;;;-2.38;76.37
70559;BME280;58108;48.094;11.838;2024-01-16T09:43:06;94742.41;;;-2.27;75.76
70559;BME280;58108;48.094;11.838;2024-01-16T09:45:37;94739.53;;;-2.20;75.02
70559;BME280;58108;48.094;11.838;2024-01-16T09:48:03;94737.75;;;-1.97;75.00
70559;BME280;58108;48.094;11.838;2024-01-16T09:50:29;94732.44;;;-1.71;74.63
70559;BME280;58108;48.094;11.838;2024-01-16T09:52:54;94737.63;;;-1.52;73.93
70559;BME280;58108;48.094;11.838;2024-01-16T09:55:20;94730.25;;;-1.41;72.43
70559;BME280;58108;48.094;11.838;2024-01-16T09:57:51;94721.28;;;-1.30;73.12
70559;BME280;58108;48.094;11.838;2024-01-16T10:00:17;94726.38;;;-1.49;71.36
70559;BME280;58108;48.094;11.838;2024-01-16T10:02:43;94715.72;;;-1.40;70.96
70559;BME280;58108;48.094;11.838;2024-01-16T10:05:13;94724.63;;;-1.49;71.64
70559;BME280;58108;48.094;11.838;2024-01-16T10:07:42;94719.69;;;-1.54;70.96
70559;BME280;58108;48.094;11.838;2024-01-16T10:10:11;94717.09;;;-1.33;71.83
70559;BME280;58108;48.094;11.838;2024-01-16T10:12:40;94715.34;;;-1.32;71.50
70559;BME280;58108;48.094;11.838;2024-01-16T10:15:07;94707.59;;;-1.31;70.35
70559;BME280;58108;48.094;11.838;2024-01-16T10:17:41;94707.75;;;-1.34;70.67
70559;BME280;58108;48.094;11.838;2024-01-16T10:20:08;94707.41;;;-1.47;71.42
70559;BME280;58108;48.094;11.838;2024-01-16T10:22:39;94702.41;;;-1.29;71.01
70559;BME280;58108;48.094;11.838;2024-01-16T10:25:12;94701.44;;;-1.07;69.96
70559;BME280;58108;48.094;11.838;2024-01-16T10:27:42;94704.88;;;-0.70;69.98
70559;BME280;58108;48.094;11.838;2024-01-16T10:30:08;94705.13;;;-0.57;69.66
70559;BME280;58108;48.094;11.838;2024-01-16T10:32:36;94706.56;;;-0.51;68.73
70559;BME280;58108;48.094;11.838;2024-01-16T10:40:17;94691.06;;;-0.50;68.93
70559;BME280;58108;48.094;11.838;2024-01-16T10:42:44;94688.44;;;-0.13;69.09
70559;BME280;58108;48.094;11.838;2024-01-16T10:45:20;94691.31;;;0.16;69.02
70559;BME280;58108;48.094;11.838;2024-01-16T10:47:48;94688.53;;;0.03;65.24
70559;BME280;58108;48.094;11.838;2024-01-16T10:50:14;94687.91;;;0.16;68.97
70559;BME280;58108;48.094;11.838;2024-01-16T10:52:46;94680.28;;;0.48;66.96
70559;BME280;58108;48.094;11.838;2024-01-16T10:55:21;94675.44;;;0.75;67.08
70559;BME280;58108;48.094;11.838;2024-01-16T10:57:51;94675.19;;;0.46;66.04
70559;BME280;58108;48.094;11.838;2024-01-16T11:00:21;94678.75;;;0.77;66.07
70559;BME280;58108;48.094;11.838;2024-01-16T11:02:57;94682.34;;;1.23;64.17
70559;BME280;58108;48.094;11.838;2024-01-16T11:05:25;94680.53;;;1.25;61.36
70559;BME280;58108;48.094;11.838;2024-01-16T11:07:54;94675.13;;;1.30;63.20
70559;BME280;58108;48.094;11.838;2024-01-16T11:10:21;94671.69;;;1.29;59.45
70559;BME280;58108;48.094;11.838;2024-01-16T11:12:47;94679.81;;;1.54;58.35
70559;BME280;58108;48.094;11.838;2024-01-16T11:15:14;94671.00;;;1.88;59.16
70559;BME280;58108;48.094;11.838;2024-01-16T11:17:40;94667.50;;;1.89;56.46
70559;BME280;58108;48.094;11.838;2024-01-16T11:20:09;94665.00;;;1.57;58.59
70559;BME280;58108;48.094;11.838;2024-01-16T11:22:42;94656.88;;;2.68;56.45
70559;BME280;58108;48.094;11.838;2024-01-16T11:27:35;94643.59;;;3.17;53.28
70559;BME280;58108;48.094;11.838;2024-01-16T11:30:01;94644.69;;;2.85;51.99
70559;BME280;58108;48.094;11.838;2024-01-16T11:32:38;94641.72;;;2.77;51.51
70559;BME280;58108;48.094;11.838;2024-01-16T11:35:06;94642.59;;;2.34;55.04
70559;BME280;58108;48.094;11.838;2024-01-16T11:37:33;94641.00;;;2.16;55.17
70559;BME280;58108;48.094;11.838;2024-01-16T11:42:49;94634.84;;;0.63;58.76
70559;BME280;58108;48.094;11.838;2024-01-16T11:48:12;94627.97;;;-0.04;60.30
70559;BME280;58108;48.094;11.838;2024-01-16T11:50:39;94624.47;;;0.64;60.91
70559;BME280;58108;48.094;11.838;2024-01-16T11:53:05;94616.31;;;0.56;61.23
70559;BME280;58108;48.094;11.838;2024-01-16T11:55:32;94615.84;;;0.32;61.88
70559;BME280;58108;48.094;11.838;2024-01-16T12:00:35;94615.28;;;1.39;59.71
70559;BME280;58108;48.094;11.838;2024-01-16T12:03:02;94618.47;;;0.48;56.60
70559;BME280;58108;48.094;11.838;2024-01-16T12:05:31;94624.03;;;0.56;60.41
70559;BME280;58108;48.094;11.838;2024-01-16T12:07:57;94620.56;;;0.89;58.07
70559;BME280;58108;48.094;11.838;2024-01-16T12:10:24;94625.03;;;0.53;57.94
70559;BME280;58108;48.094;11.838;2024-01-16T12:12:51;94615.09;;;0.79;59.80
70559;BME280;58108;48.094;11.838;2024-01-16T12:15:20;94607.31;;;1.28;58.38
70559;BME280;58108;48.094;11.838;2024-01-16T12:17:59;94605.94;;;1.36;56.61
70559;BME280;58108;48.094;11.838;2024-01-16T12:20:28;94599.81;;;1.23;55.93
70559;BME280;58108;48.094;11.838;2024-01-16T12:22:58;94586.56;;;0.99;57.04
70559;BME280;58108;48.094;11.838;2024-01-16T12:25:25;94578.13;;;1.58;54.69
70559;BME280;58108;48.094;11.838;2024-01-16T12:27:56;94574.56;;;1.44;53.78
70559;BME280;58108;48.094;11.838;2024-01-16T12:30:24;94571.09;;;0.82;56.78
70559;BME280;58108;48.094;11.838;2024-01-16T12:32:50;94563.31;;;1.76;57.39
70559;BME280;58108;48.094;11.838;2024-01-16T12:35:22;94562.56;;;1.29;54.92
70559;BME280;58108;48.094;11.838;2024-01-16T12:38:01;94559.00;;;0.68;56.37
70559;BME280;58108;48.094;11.838;2024-01-16T12:40:27;94556.38;;;0.85;57.35
70559;BME280;58108;48.094;11.838;2024-01-16T12:42:53;94557.22;;;1.77;58.00
70559;BME280;58108;48.094;11.838;2024-01-16T12:45:19;94556.56;;;1.59;55.10
70559;BME280;58108;48.094;11.838;2024-01-16T12:47:50;94555.56;;;1.31;55.16
70559;BME280;58108;48.094;11.838;2024-01-16T12:50:20;94542.81;;;1.13;54.34
70559;BME280;58108;48.094;11.838;2024-01-16T12:52:46;94537.03;;;1.84;55.39
70559;BME280;58108;48.094;11.838;2024-01-16T12:55:13;94536.34;;;2.53;52.79
70559;BME280;58108;48.094;11.838;2024-01-16T12:57:39;94534.31;;;3.66;50.57
70559;BME280;58108;48.094;11.838;2024-01-16T13:00:21;94526.78;;;3.89;47.93
70559;BME280;58108;48.094;11.838;2024-01-16T13:02:51;94529.13;;;4.93;47.19